sensor_id;sensor_type;location;lat;lon;timestamp;P1;durP1;ratioP1;P2;durP2;ratioP2
37299;SDS011;23184;51.902;12.836;2023-05-27T00:01:57;8.40;;;3.85;;
37299;SDS011;23184;51.902;12.836;2023-05-27T00:04:22;11.73;;;4.25;;
37299;SDS011;23184;51.902;12.836;2023-05-27T00:06:48;12.15;;;3.90;;
37299;SDS011;23184;51.902;12.836;2023-05-27T00:09:13;11.90;;;4.25;;
37299;SDS011;23184;51.902;12.836;2023-05-27T00:11:39;13.52;;;4.10;;
37299;SDS011;23184;51.902;12.836;2023-05-27T00:14:05;14.00;;;4.03;;
37299;SDS011;23184;51.902;12.836;2023-05-27T00:16:30;14.93;;;4.22;;
37299;SDS011;23184;51.902;12.836;2023-05-27T00:18:56;15.55;;;4.25;;
37299;SDS011;23184;51.902;12.836;2023-05-27T00:21:22;10.43;;;3.90;;
37299;SDS011;23184;51.902;12.836;2023-05-27T00:23:50;10.77;;;4.30;;
37299;SDS011;23184;51.902;12.836;2023-05-27T00:26:16;16.45;;;4.70;;
37299;SDS011;23184;51.902;12.836;2023-05-27T00:28:41;16.15;;;4.30;;
37299;SDS011;23184;51.902;12.836;2023-05-27T00:31:07;11.75;;;3.83;;
37299;SDS011;23184;51.902;12.836;2023-05-27T00:33:33;9.00;;;3.63;;
37299;SDS011;23184;51.902;12.836;2023-05-27T00:35:58;12.50;;;3.20;;
37299;SDS011;23184;51.902;12.836;2023-05-27T00:38:23;19.70;;;4.72;;
37299;SDS011;23184;51.902;12.836;2023-05-27T00:40:49;13.38;;;4.00;;
37299;SDS011;23184;51.902;12.836;2023-05-27T00:43:17;10.05;;;3.40;;
37299;SDS011;23184;51.902;12.836;2023-05-27T00:45:43;12.80;;;4.18;;
37299;SDS011;23184;51.902;12.836;2023-05-27T00:48:08;11.73;;;3.97;;
37299;SDS011;23184;51.902;12.836;2023-05-27T00:50:34;13.30;;;3.95;;
37299;SDS011;23184;51.902;12.836;2023-05-27T00:53:00;13.75;;;4.18;;
37299;SDS011;23184;51.902;12.836;2023-05-27T00:55:26;9.45;;;4.18;;
37299;SDS011;23184;51.902;12.836;2023-05-27T00:57:51;15.20;;;4.38;;
37299;SDS011;23184;51.902;12.836;2023-05-27T01:00:23;14.55;;;4.03;;
37299;SDS011;23184;51.902;12.836;2023-05-27T01:02:48;21.02;;;4.30;;
37299;SDS011;23184;51.902;12.836;2023-05-27T01:05:15;13.13;;;4.18;;
37299;SDS011;23184;51.902;12.836;2023-05-27T01:08:03;19.67;;;4.35;;
37299;SDS011;23184;51.902;12.836;2023-05-27T01:10:59;16.42;;;4.40;;
37299;SDS011;23184;51.902;12.836;2023-05-27T01:13:28;22.40;;;4.40;;
37299;SDS011;23184;51.902;12.836;2023-05-27T01:15:56;8.38;;;3.13;;
37299;SDS011;23184;51.902;12.836;2023-05-27T01:18:24;11.73;;;4.10;;
37299;SDS011;23184;51.902;12.836;2023-05-27T01:20:55;10.25;;;4.00;;
37299;SDS011;23184;51.902;12.836;2023-05-27T01:23:27;15.57;;;3.88;;
37299;SDS011;23184;51.902;12.836;2023-05-27T01:25:53;9.43;;;3.22;;
37299;SDS011;23184;51.902;12.836;2023-05-27T01:28:19;11.88;;;4.35;;
37299;SDS011;23184;51.902;12.836;2023-05-27T01:30:44;12.80;;;4.80;;
37299;SDS011;23184;51.902;12.836;2023-05-27T01:33:14;13.40;;;4.07;;
37299;SDS011;23184;51.902;12.836;2023-05-27T01:35:45;11.07;;;4.53;;
37299;SDS011;23184;51.902;12.836;2023-05-27T01:38:16;9.20;;;3.67;;
37299;SDS011;23184;51.902;12.836;2023-05-27T01:40:43;14.02;;;4.72;;
37299;SDS011;23184;51.902;12.836;2023-05-27T01:43:10;10.68;;;3.38;;
37299;SDS011;23184;51.902;12.836;2023-05-27T01:45:37;10.98;;;4.03;;
37299;SDS011;23184;51.902;12.836;2023-05-27T01:48:03;9.30;;;3.25;;
37299;SDS011;23184;51.902;12.836;2023-05-27T01:50:29;11.50;;;3.67;;
37299;SDS011;23184;51.902;12.836;2023-05-27T01:52:58;15.07;;;4.35;;
37299;SDS011;23184;51.902;12.836;2023-05-27T01:55:24;10.43;;;3.58;;
37299;SDS011;23184;51.902;12.836;2023-05-27T01:57:50;12.40;;;4.13;;
37299;SDS011;23184;51.902;12.836;2023-05-27T02:00:16;10.52;;;3.88;;
37299;SDS011;23184;51.902;12.836;2023-05-27T02:02:42;13.25;;;3.72;;
37299;SDS011;23184;51.902;12.836;2023-05-27T02:05:07;10.40;;;3.40;;
37299;SDS011;23184;51.902;12.836;2023-05-27T02:07:33;12.60;;;4.68;;
37299;SDS011;23184;51.902;12.836;2023-05-27T02:09:58;11.48;;;4.30;;
37299;SDS011;23184;51.902;12.836;2023-05-27T02:12:24;12.18;;;3.78;;
37299;SDS011;23184;51.902;12.836;2023-05-27T02:14:49;13.60;;;4.07;;
37299;SDS011;23184;51.902;12.836;2023-05-27T02:17:16;14.82;;;4.57;;
37299;SDS011;23184;51.902;12.836;2023-05-27T02:19:42;12.32;;;3.78;;
37299;SDS011;23184;51.902;12.836;2023-05-27T02:22:07;13.57;;;4.45;;
37299;SDS011;23184;51.902;12.836;2023-05-27T02:24:33;14.13;;;4.75;;
37299;SDS011;23184;51.902;12.836;2023-05-27T02:26:58;12.23;;;4.60;;
37299;SDS011;23184;51.902;12.836;2023-05-27T02:29:25;13.55;;;3.60;;
37299;SDS011;23184;51.902;12.836;2023-05-27T02:31:50;16.05;;;3.90;;
37299;SDS011;23184;51.902;12.836;2023-05-27T02:34:15;11.07;;;4.07;;
37299;SDS011;23184;51.902;12.836;2023-05-27T02:36:41;13.32;;;3.92;;
37299;SDS011;23184;51.902;12.836;2023-05-27T02:39:08;11.63;;;3.90;;
37299;SDS011;23184;51.902;12.836;2023-05-27T02:41:33;15.13;;;4.07;;
37299;SDS011;23184;51.902;12.836;2023-05-27T02:43:59;10.98;;;4.18;;
37299;SDS011;23184;51.902;12.836;2023-05-27T02:46:24;15.23;;;4.47;;
37299;SDS011;23184;51.902;12.836;2023-05-27T02:48:50;14.85;;;4.90;;
37299;SDS011;23184;51.902;12.836;2023-05-27T02:51:15;14.63;;;3.80;;
37299;SDS011;23184;51.902;12.836;2023-05-27T02:53:41;13.27;;;4.40;;
37299;SDS011;23184;51.902;12.836;2023-05-27T02:56:07;14.80;;;5.13;;
37299;SDS011;23184;51.902;12.836;2023-05-27T02:58:32;14.07;;;4.40;;
37299;SDS011;23184;51.902;12.836;2023-05-27T03:00:58;22.40;;;4.28;;
37299;SDS011;23184;51.902;12.836;2023-05-27T03:03:23;18.63;;;5.03;;
37299;SDS011;23184;51.902;12.836;2023-05-27T03:05:50;17.75;;;4.70;;
37299;SDS011;23184;51.902;12.836;2023-05-27T03:08:15;15.45;;;4.50;;
37299;SDS011;23184;51.902;12.836;2023-05-27T03:10:41;18.45;;;4.75;;
37299;SDS011;23184;51.902;12.836;2023-05-27T03:13:06;13.85;;;4.63;;
37299;SDS011;23184;51.902;12.836;2023-05-27T03:15:32;10.52;;;4.38;;
37299;SDS011;23184;51.902;12.836;2023-05-27T03:17:57;15.57;;;4.30;;
37299;SDS011;23184;51.902;12.836;2023-05-27T03:20:23;12.68;;;4.43;;
37299;SDS011;23184;51.902;12.836;2023-05-27T03:22:49;12.50;;;5.75;;
37299;SDS011;23184;51.902;12.836;2023-05-27T03:25:15;15.52;;;4.70;;
37299;SDS011;23184;51.902;12.836;2023-05-27T03:27:40;13.50;;;4.63;;
37299;SDS011;23184;51.902;12.836;2023-05-27T03:30:06;14.18;;;4.50;;
37299;SDS011;23184;51.902;12.836;2023-05-27T03:32:32;15.68;;;4.20;;
37299;SDS011;23184;51.902;12.836;2023-05-27T03:34:58;14.23;;;4.60;;
37299;SDS011;23184;51.902;12.836;2023-05-27T03:37:24;15.05;;;4.55;;
37299;SDS011;23184;51.902;12.836;2023-05-27T03:39:50;12.57;;;4.68;;
37299;SDS011;23184;51.902;12.836;2023-05-27T03:42:15;11.70;;;4.55;;
37299;SDS011;23184;51.902;12.836;2023-05-27T03:44:41;12.13;;;4.38;;
37299;SDS011;23184;51.902;12.836;2023-05-27T03:47:07;12.43;;;5.20;;
37299;SDS011;23184;51.902;12.836;2023-05-27T03:49:32;17.52;;;4.88;;
37299;SDS011;23184;51.902;12.836;2023-05-27T03:51:57;16.80;;;4.97;;
37299;SDS011;23184;51.902;12.836;2023-05-27T03:54:23;17.08;;;5.03;;
37299;SDS011;23184;51.902;12.836;2023-05-27T03:56:49;15.32;;;4.20;;
37299;SDS011;23184;51.902;12.836;2023-05-27T03:59:15;12.38;;;4.25;;
37299;SDS011;23184;51.902;12.836;2023-05-27T04:01:43;12.57;;;5.00;;
37299;SDS011;23184;51.902;12.836;2023-05-27T04:04:09;12.43;;;5.40;;
37299;SDS011;23184;51.902;12.836;2023-05-27T04:06:35;16.63;;;4.55;;
37299;SDS011;23184;51.902;12.836;2023-05-27T04:09:00;12.38;;;4.75;;
37299;SDS011;23184;51.902;12.836;2023-05-27T04:11:26;22.40;;;4.43;;
37299;SDS011;23184;51.902;12.836;2023-05-27T04:13:52;17.63;;;4.75;;
37299;SDS011;23184;51.902;12.836;2023-05-27T04:16:18;12.73;;;4.70;;
37299;SDS011;23184;51.902;12.836;2023-05-27T04:18:46;21.65;;;5.18;;
37299;SDS011;23184;51.902;12.836;2023-05-27T04:21:13;17.38;;;4.70;;
37299;SDS011;23184;51.902;12.836;2023-05-27T04:23:40;16.02;;;4.93;;
37299;SDS011;23184;51.902;12.836;2023-05-27T04:26:05;12.63;;;4.90;;
37299;SDS011;23184;51.902;12.836;2023-05-27T04:28:31;17.05;;;5.00;;
37299;SDS011;23184;51.902;12.836;2023-05-27T04:30:57;10.70;;;4.30;;
37299;SDS011;23184;51.902;12.836;2023-05-27T04:33:22;13.73;;;4.43;;
37299;SDS011;23184;51.902;12.836;2023-05-27T04:35:48;14.38;;;4.43;;
37299;SDS011;23184;51.902;12.836;2023-05-27T04:38:13;13.10;;;4.65;;
37299;SDS011;23184;51.902;12.836;2023-05-27T04:40:41;9.73;;;4.47;;
37299;SDS011;23184;51.902;12.836;2023-05-27T04:43:09;14.50;;;4.40;;
37299;SDS011;23184;51.902;12.836;2023-05-27T04:45:37;11.82;;;4.43;;
37299;SDS011;23184;51.902;12.836;2023-05-27T04:48:03;12.40;;;4.55;;
37299;SDS011;23184;51.902;12.836;2023-05-27T04:50:28;11.50;;;4.65;;
37299;SDS011;23184;51.902;12.836;2023-05-27T04:52:54;14.90;;;4.07;;
37299;SDS011;23184;51.902;12.836;2023-05-27T04:55:19;15.35;;;4.80;;
37299;SDS011;23184;51.902;12.836;2023-05-27T04:57:45;13.57;;;4.15;;
37299;SDS011;23184;51.902;12.836;2023-05-27T05:00:11;17.00;;;4.75;;
37299;SDS011;23184;51.902;12.836;2023-05-27T05:02:37;17.90;;;5.32;;
37299;SDS011;23184;51.902;12.836;2023-05-27T05:05:05;13.05;;;4.57;;
37299;SDS011;23184;51.902;12.836;2023-05-27T05:07:38;16.40;;;4.13;;
37299;SDS011;23184;51.902;12.836;2023-05-27T05:10:09;14.00;;;4.70;;
37299;SDS011;23184;51.902;12.836;2023-05-27T05:12:36;13.93;;;4.80;;
37299;SDS011;23184;51.902;12.836;2023-05-27T05:15:02;12.30;;;4.57;;
37299;SDS011;23184;51.902;12.836;2023-05-27T05:17:29;13.48;;;4.78;;
37299;SDS011;23184;51.902;12.836;2023-05-27T05:19:55;8.90;;;4.10;;
37299;SDS011;23184;51.902;12.836;2023-05-27T05:22:20;14.85;;;5.03;;
37299;SDS011;23184;51.902;12.836;2023-05-27T05:24:50;15.77;;;4.55;;
37299;SDS011;23184;51.902;12.836;2023-05-27T05:27:16;12.23;;;4.18;;
37299;SDS011;23184;51.902;12.836;2023-05-27T05:29:41;19.55;;;5.15;;
37299;SDS011;23184;51.902;12.836;2023-05-27T05:32:08;13.55;;;4.30;;
37299;SDS011;23184;51.902;12.836;2023-05-27T05:34:36;13.57;;;4.25;;
37299;SDS011;23184;51.902;12.836;2023-05-27T05:37:02;10.07;;;4.53;;
37299;SDS011;23184;51.902;12.836;2023-05-27T05:39:27;53.75;;;22.90;;
37299;SDS011;23184;51.902;12.836;2023-05-27T05:41:53;51.20;;;22.70;;
37299;SDS011;23184;51.902;12.836;2023-05-27T05:44:18;17.00;;;5.32;;
37299;SDS011;23184;51.902;12.836;2023-05-27T05:46:44;14.77;;;4.32;;
37299;SDS011;23184;51.902;12.836;2023-05-27T05:49:09;19.20;;;4.18;;
37299;SDS011;23184;51.902;12.836;2023-05-27T05:51:35;14.13;;;3.53;;
37299;SDS011;23184;51.902;12.836;2023-05-27T05:54:01;14.27;;;4.60;;
37299;SDS011;23184;51.902;12.836;2023-05-27T05:56:26;14.18;;;3.53;;
37299;SDS011;23184;51.902;12.836;2023-05-27T05:58:52;12.32;;;3.38;;
37299;SDS011;23184;51.902;12.836;2023-05-27T06:01:18;15.38;;;3.97;;
37299;SDS011;23184;51.902;12.836;2023-05-27T06:03:43;15.00;;;3.53;;
37299;SDS011;23184;51.902;12.836;2023-05-27T06:06:09;13.70;;;3.65;;
37299;SDS011;23184;51.902;12.836;2023-05-27T06:08:35;11.23;;;3.65;;
37299;SDS011;23184;51.902;12.836;2023-05-27T06:11:00;16.63;;;3.97;;
37299;SDS011;23184;51.902;12.836;2023-05-27T06:13:27;13.85;;;3.10;;
37299;SDS011;23184;51.902;12.836;2023-05-27T06:15:52;13.95;;;3.72;;
37299;SDS011;23184;51.902;12.836;2023-05-27T06:18:18;13.55;;;3.20;;
37299;SDS011;23184;51.902;12.836;2023-05-27T06:20:43;14.77;;;3.38;;
37299;SDS011;23184;51.902;12.836;2023-05-27T06:23:09;13.82;;;3.53;;
37299;SDS011;23184;51.902;12.836;2023-05-27T06:25:34;11.82;;;3.42;;
37299;SDS011;23184;51.902;12.836;2023-05-27T06:28:00;17.58;;;3.92;;
37299;SDS011;23184;51.902;12.836;2023-05-27T06:30:25;13.88;;;3.67;;
37299;SDS011;23184;51.902;12.836;2023-05-27T06:32:51;11.88;;;3.92;;
37299;SDS011;23184;51.902;12.836;2023-05-27T06:35:17;13.20;;;3.22;;
37299;SDS011;23184;51.902;12.836;2023-05-27T06:37:43;14.20;;;3.13;;
37299;SDS011;23184;51.902;12.836;2023-05-27T06:40:08;14.55;;;3.92;;
37299;SDS011;23184;51.902;12.836;2023-05-27T06:42:35;10.68;;;3.28;;
37299;SDS011;23184;51.902;12.836;2023-05-27T06:45:01;14.85;;;4.20;;
37299;SDS011;23184;51.902;12.836;2023-05-27T06:47:27;13.52;;;3.72;;
37299;SDS011;23184;51.902;12.836;2023-05-27T06:49:52;13.05;;;3.22;;
37299;SDS011;23184;51.902;12.836;2023-05-27T06:52:18;13.23;;;3.05;;
37299;SDS011;23184;51.902;12.836;2023-05-27T06:54:44;14.75;;;3.53;;
37299;SDS011;23184;51.902;12.836;2023-05-27T06:57:10;18.58;;;3.67;;
37299;SDS011;23184;51.902;12.836;2023-05-27T06:59:36;13.23;;;3.55;;
37299;SDS011;23184;51.902;12.836;2023-05-27T07:02:02;13.82;;;3.28;;
37299;SDS011;23184;51.902;12.836;2023-05-27T07:04:28;13.98;;;3.70;;
37299;SDS011;23184;51.902;12.836;2023-05-27T07:06:53;12.65;;;3.35;;
37299;SDS011;23184;51.902;12.836;2023-05-27T07:09:19;14.00;;;3.45;;
37299;SDS011;23184;51.902;12.836;2023-05-27T07:11:44;11.18;;;3.30;;
37299;SDS011;23184;51.902;12.836;2023-05-27T07:14:10;13.30;;;3.30;;
37299;SDS011;23184;51.902;12.836;2023-05-27T07:16:36;12.05;;;2.97;;
37299;SDS011;23184;51.902;12.836;2023-05-27T07:19:01;9.45;;;2.80;;
37299;SDS011;23184;51.902;12.836;2023-05-27T07:21:27;10.65;;;3.40;;
37299;SDS011;23184;51.902;12.836;2023-05-27T07:23:53;12.20;;;3.45;;
37299;SDS011;23184;51.902;12.836;2023-05-27T07:26:18;8.55;;;2.88;;
37299;SDS011;23184;51.902;12.836;2023-05-27T07:28:45;17.58;;;3.28;;
37299;SDS011;23184;51.902;12.836;2023-05-27T07:31:10;12.80;;;3.60;;
37299;SDS011;23184;51.902;12.836;2023-05-27T07:33:36;7.97;;;2.92;;
37299;SDS011;23184;51.902;12.836;2023-05-27T07:36:02;10.10;;;3.40;;
37299;SDS011;23184;51.902;12.836;2023-05-27T07:38:27;12.82;;;3.15;;
37299;SDS011;23184;51.902;12.836;2023-05-27T07:40:53;10.35;;;2.70;;
37299;SDS011;23184;51.902;12.836;2023-05-27T07:43:19;10.05;;;3.00;;
37299;SDS011;23184;51.902;12.836;2023-05-27T07:45:44;9.98;;;2.88;;
37299;SDS011;23184;51.902;12.836;2023-05-27T07:48:10;9.73;;;2.38;;
37299;SDS011;23184;51.902;12.836;2023-05-27T07:50:35;8.25;;;2.70;;
37299;SDS011;23184;51.902;12.836;2023-05-27T07:53:01;12.18;;;2.67;;
37299;SDS011;23184;51.902;12.836;2023-05-27T07:55:26;12.35;;;2.70;;
37299;SDS011;23184;51.902;12.836;2023-05-27T07:57:54;13.00;;;3.75;;
37299;SDS011;23184;51.902;12.836;2023-05-27T08:00:20;11.25;;;2.72;;
37299;SDS011;23184;51.902;12.836;2023-05-27T08:02:45;8.20;;;2.75;;
37299;SDS011;23184;51.902;12.836;2023-05-27T08:05:11;10.13;;;2.60;;
37299;SDS011;23184;51.902;12.836;2023-05-27T08:07:36;8.70;;;2.33;;
37299;SDS011;23184;51.902;12.836;2023-05-27T08:10:02;7.40;;;2.13;;
37299;SDS011;23184;51.902;12.836;2023-05-27T08:12:27;8.15;;;2.80;;
37299;SDS011;23184;51.902;12.836;2023-05-27T08:14:53;9.35;;;2.70;;
37299;SDS011;23184;51.902;12.836;2023-05-27T08:17:18;8.23;;;2.13;;
37299;SDS011;23184;51.902;12.836;2023-05-27T08:19:44;7.05;;;2.22;;
37299;SDS011;23184;51.902;12.836;2023-05-27T08:22:09;9.00;;;2.50;;
37299;SDS011;23184;51.902;12.836;2023-05-27T08:24:35;8.32;;;2.08;;
37299;SDS011;23184;51.902;12.836;2023-05-27T08:27:01;13.23;;;1.95;;
37299;SDS011;23184;51.902;12.836;2023-05-27T08:29:27;5.63;;;1.98;;
37299;SDS011;23184;51.902;12.836;2023-05-27T08:31:57;8.13;;;2.28;;
37299;SDS011;23184;51.902;12.836;2023-05-27T08:34:23;8.38;;;2.10;;
37299;SDS011;23184;51.902;12.836;2023-05-27T08:36:48;8.13;;;3.08;;
37299;SDS011;23184;51.902;12.836;2023-05-27T08:39:14;6.88;;;2.63;;
37299;SDS011;23184;51.902;12.836;2023-05-27T08:41:40;9.82;;;2.63;;
37299;SDS011;23184;51.902;12.836;2023-05-27T08:44:06;7.93;;;2.33;;
37299;SDS011;23184;51.902;12.836;2023-05-27T08:46:32;9.27;;;2.08;;
37299;SDS011;23184;51.902;12.836;2023-05-27T08:48:58;6.00;;;2.00;;
37299;SDS011;23184;51.902;12.836;2023-05-27T08:51:24;7.18;;;1.92;;
37299;SDS011;23184;51.902;12.836;2023-05-27T08:53:51;7.80;;;2.45;;
37299;SDS011;23184;51.902;12.836;2023-05-27T08:56:18;5.97;;;2.35;;
37299;SDS011;23184;51.902;12.836;2023-05-27T08:58:46;7.63;;;2.25;;
37299;SDS011;23184;51.902;12.836;2023-05-27T09:01:12;8.85;;;2.20;;
37299;SDS011;23184;51.902;12.836;2023-05-27T09:03:42;11.00;;;2.50;;
37299;SDS011;23184;51.902;12.836;2023-05-27T09:06:08;7.18;;;2.63;;
37299;SDS011;23184;51.902;12.836;2023-05-27T09:08:34;8.55;;;2.30;;
37299;SDS011;23184;51.902;12.836;2023-05-27T09:11:00;5.70;;;2.00;;
37299;SDS011;23184;51.902;12.836;2023-05-27T09:13:27;6.82;;;2.08;;
37299;SDS011;23184;51.902;12.836;2023-05-27T09:15:57;8.95;;;2.30;;
37299;SDS011;23184;51.902;12.836;2023-05-27T09:18:27;8.27;;;2.17;;
37299;SDS011;23184;51.902;12.836;2023-05-27T09:20:55;7.60;;;2.20;;
37299;SDS011;23184;51.902;12.836;2023-05-27T09:23:21;7.93;;;2.00;;
37299;SDS011;23184;51.902;12.836;2023-05-27T09:25:46;9.75;;;2.30;;
37299;SDS011;23184;51.902;12.836;2023-05-27T09:28:19;7.22;;;2.42;;
37299;SDS011;23184;51.902;12.836;2023-05-27T09:31:00;5.53;;;2.20;;
37299;SDS011;23184;51.902;12.836;2023-05-27T09:33:29;7.32;;;2.00;;
37299;SDS011;23184;51.902;12.836;2023-05-27T09:36:05;8.60;;;2.90;;
37299;SDS011;23184;51.902;12.836;2023-05-27T09:38:32;8.82;;;2.28;;
37299;SDS011;23184;51.902;12.836;2023-05-27T09:40:58;7.35;;;2.10;;
37299;SDS011;23184;51.902;12.836;2023-05-27T09:43:25;7.00;;;2.22;;
37299;SDS011;23184;51.902;12.836;2023-05-27T09:45:52;7.25;;;2.15;;
37299;SDS011;23184;51.902;12.836;2023-05-27T09:48:20;7.63;;;2.45;;
37299;SDS011;23184;51.902;12.836;2023-05-27T09:50:48;5.93;;;2.13;;
37299;SDS011;23184;51.902;12.836;2023-05-27T09:53:15;6.15;;;1.92;;
37299;SDS011;23184;51.902;12.836;2023-05-27T09:55:41;7.55;;;2.80;;
37299;SDS011;23184;51.902;12.836;2023-05-27T09:58:08;5.78;;;2.35;;
37299;SDS011;23184;51.902;12.836;2023-05-27T10:00:35;7.18;;;2.60;;
37299;SDS011;23184;51.902;12.836;2023-05-27T10:03:04;8.70;;;2.85;;
37299;SDS011;23184;51.902;12.836;2023-05-27T10:05:31;10.23;;;2.40;;
37299;SDS011;23184;51.902;12.836;2023-05-27T10:07:58;7.13;;;2.40;;
37299;SDS011;23184;51.902;12.836;2023-05-27T10:10:23;7.68;;;2.40;;
37299;SDS011;23184;51.902;12.836;2023-05-27T10:12:50;5.90;;;2.28;;
37299;SDS011;23184;51.902;12.836;2023-05-27T10:15:23;7.60;;;2.47;;
37299;SDS011;23184;51.902;12.836;2023-05-27T10:17:53;5.93;;;2.22;;
37299;SDS011;23184;51.902;12.836;2023-05-27T10:20:30;7.05;;;2.17;;
37299;SDS011;23184;51.902;12.836;2023-05-27T10:23:08;10.30;;;2.72;;
37299;SDS011;23184;51.902;12.836;2023-05-27T10:25:39;7.13;;;2.28;;
37299;SDS011;23184;51.902;12.836;2023-05-27T10:28:05;4.80;;;2.00;;
37299;SDS011;23184;51.902;12.836;2023-05-27T10:30:41;5.82;;;2.22;;
37299;SDS011;23184;51.902;12.836;2023-05-27T10:33:09;7.10;;;2.40;;
37299;SDS011;23184;51.902;12.836;2023-05-27T10:35:38;5.28;;;2.25;;
37299;SDS011;23184;51.902;12.836;2023-05-27T10:38:13;6.60;;;2.42;;
37299;SDS011;23184;51.902;12.836;2023-05-27T10:40:40;5.63;;;2.13;;
37299;SDS011;23184;51.902;12.836;2023-05-27T10:43:06;5.28;;;2.13;;
37299;SDS011;23184;51.902;12.836;2023-05-27T10:45:40;5.45;;;2.30;;
37299;SDS011;23184;51.902;12.836;2023-05-27T10:48:14;5.97;;;2.08;;
37299;SDS011;23184;51.902;12.836;2023-05-27T10:50:49;6.03;;;2.38;;
37299;SDS011;23184;51.902;12.836;2023-05-27T10:53:18;5.45;;;2.25;;
37299;SDS011;23184;51.902;12.836;2023-05-27T10:55:46;5.70;;;2.17;;
37299;SDS011;23184;51.902;12.836;2023-05-27T10:58:14;4.55;;;2.05;;
37299;SDS011;23184;51.902;12.836;2023-05-27T11:00:41;4.18;;;1.90;;
37299;SDS011;23184;51.902;12.836;2023-05-27T11:03:15;5.55;;;2.10;;
37299;SDS011;23184;51.902;12.836;2023-05-27T11:06:02;7.95;;;2.35;;
37299;SDS011;23184;51.902;12.836;2023-05-27T11:08:29;7.32;;;1.90;;
37299;SDS011;23184;51.902;12.836;2023-05-27T11:11:02;4.55;;;2.17;;
37299;SDS011;23184;51.902;12.836;2023-05-27T11:13:34;8.43;;;2.05;;
37299;SDS011;23184;51.902;12.836;2023-05-27T11:16:00;5.65;;;2.08;;
37299;SDS011;23184;51.902;12.836;2023-05-27T11:18:36;4.50;;;2.17;;
37299;SDS011;23184;51.902;12.836;2023-05-27T11:21:03;4.32;;;2.10;;
37299;SDS011;23184;51.902;12.836;2023-05-27T11:23:39;13.27;;;2.38;;
37299;SDS011;23184;51.902;12.836;2023-05-27T11:26:21;5.72;;;1.80;;
37299;SDS011;23184;51.902;12.836;2023-05-27T11:28:49;3.90;;;1.85;;
37299;SDS011;23184;51.902;12.836;2023-05-27T11:31:16;4.20;;;1.90;;
37299;SDS011;23184;51.902;12.836;2023-05-27T11:33:48;3.65;;;2.00;;
37299;SDS011;23184;51.902;12.836;2023-05-27T11:36:15;4.15;;;2.00;;
37299;SDS011;23184;51.902;12.836;2023-05-27T11:38:45;4.22;;;1.60;;
37299;SDS011;23184;51.902;12.836;2023-05-27T11:41:17;3.08;;;1.60;;
37299;SDS011;23184;51.902;12.836;2023-05-27T11:44:03;3.35;;;1.67;;
37299;SDS011;23184;51.902;12.836;2023-05-27T11:46:48;3.08;;;1.60;;
37299;SDS011;23184;51.902;12.836;2023-05-27T11:49:15;4.55;;;2.13;;
37299;SDS011;23184;51.902;12.836;2023-05-27T11:51:42;5.97;;;1.52;;
37299;SDS011;23184;51.902;12.836;2023-05-27T11:56:51;4.45;;;1.73;;
37299;SDS011;23184;51.902;12.836;2023-05-27T11:59:18;3.53;;;1.73;;
37299;SDS011;23184;51.902;12.836;2023-05-27T12:01:45;3.30;;;1.80;;
37299;SDS011;23184;51.902;12.836;2023-05-27T12:04:11;3.28;;;1.85;;
37299;SDS011;23184;51.902;12.836;2023-05-27T12:06:36;3.70;;;1.92;;
37299;SDS011;23184;51.902;12.836;2023-05-27T12:09:05;3.50;;;1.60;;
37299;SDS011;23184;51.902;12.836;2023-05-27T12:11:32;4.38;;;1.90;;
37299;SDS011;23184;51.902;12.836;2023-05-27T12:13:58;2.97;;;1.85;;
37299;SDS011;23184;51.902;12.836;2023-05-27T12:16:23;3.03;;;1.40;;
37299;SDS011;23184;51.902;12.836;2023-05-27T12:18:49;5.07;;;2.08;;
37299;SDS011;23184;51.902;12.836;2023-05-27T12:21:15;3.47;;;1.90;;
37299;SDS011;23184;51.902;12.836;2023-05-27T12:23:41;7.90;;;2.03;;
37299;SDS011;23184;51.902;12.836;2023-05-27T12:26:07;4.20;;;1.63;;
37299;SDS011;23184;51.902;12.836;2023-05-27T12:28:33;6.78;;;1.98;;
37299;SDS011;23184;51.902;12.836;2023-05-27T12:30:58;2.72;;;1.70;;
37299;SDS011;23184;51.902;12.836;2023-05-27T12:33:24;5.18;;;1.77;;
37299;SDS011;23184;51.902;12.836;2023-05-27T12:35:49;3.75;;;1.70;;
37299;SDS011;23184;51.902;12.836;2023-05-27T12:38:15;3.28;;;1.80;;
37299;SDS011;23184;51.902;12.836;2023-05-27T12:40:40;3.47;;;1.75;;
37299;SDS011;23184;51.902;12.836;2023-05-27T12:43:06;4.45;;;1.88;;
37299;SDS011;23184;51.902;12.836;2023-05-27T12:45:32;3.65;;;1.65;;
37299;SDS011;23184;51.902;12.836;2023-05-27T12:47:57;3.30;;;1.73;;
37299;SDS011;23184;51.902;12.836;2023-05-27T12:50:24;5.82;;;1.83;;
37299;SDS011;23184;51.902;12.836;2023-05-27T12:52:50;5.80;;;1.90;;
37299;SDS011;23184;51.902;12.836;2023-05-27T12:55:17;3.20;;;1.60;;
37299;SDS011;23184;51.902;12.836;2023-05-27T12:57:44;4.90;;;1.50;;
37299;SDS011;23184;51.902;12.836;2023-05-27T13:00:11;4.82;;;1.60;;
37299;SDS011;23184;51.902;12.836;2023-05-27T13:02:37;2.33;;;1.70;;
37299;SDS011;23184;51.902;12.836;2023-05-27T13:05:04;3.05;;;1.58;;
37299;SDS011;23184;51.902;12.836;2023-05-27T13:07:31;3.35;;;1.67;;
37299;SDS011;23184;51.902;12.836;2023-05-27T13:10:01;2.97;;;1.75;;
37299;SDS011;23184;51.902;12.836;2023-05-27T13:12:28;3.90;;;1.55;;
37299;SDS011;23184;51.902;12.836;2023-05-27T13:14:56;4.38;;;1.80;;
37299;SDS011;23184;51.902;12.836;2023-05-27T13:17:22;5.80;;;1.77;;
37299;SDS011;23184;51.902;12.836;2023-05-27T13:19:48;2.60;;;1.77;;
37299;SDS011;23184;51.902;12.836;2023-05-27T13:22:13;5.05;;;1.73;;
37299;SDS011;23184;51.902;12.836;2023-05-27T13:24:40;2.65;;;1.60;;
37299;SDS011;23184;51.902;12.836;2023-05-27T13:27:06;2.80;;;1.60;;
37299;SDS011;23184;51.902;12.836;2023-05-27T13:29:31;3.67;;;1.75;;
37299;SDS011;23184;51.902;12.836;2023-05-27T13:31:57;3.78;;;1.70;;
37299;SDS011;23184;51.902;12.836;2023-05-27T13:34:23;2.92;;;1.48;;
37299;SDS011;23184;51.902;12.836;2023-05-27T13:36:49;3.55;;;1.70;;
37299;SDS011;23184;51.902;12.836;2023-05-27T13:39:14;3.13;;;1.63;;
37299;SDS011;23184;51.902;12.836;2023-05-27T13:41:40;2.83;;;1.50;;
37299;SDS011;23184;51.902;12.836;2023-05-27T13:44:05;4.53;;;2.25;;
37299;SDS011;23184;51.902;12.836;2023-05-27T13:46:31;2.70;;;1.60;;
37299;SDS011;23184;51.902;12.836;2023-05-27T13:48:56;2.42;;;1.60;;
37299;SDS011;23184;51.902;12.836;2023-05-27T13:51:22;2.30;;;1.67;;
37299;SDS011;23184;51.902;12.836;2023-05-27T13:53:47;3.78;;;1.70;;
37299;SDS011;23184;51.902;12.836;2023-05-27T13:56:16;5.60;;;1.65;;
37299;SDS011;23184;51.902;12.836;2023-05-27T13:58:42;2.78;;;1.52;;
37299;SDS011;23184;51.902;12.836;2023-05-27T14:01:07;4.00;;;1.90;;
37299;SDS011;23184;51.902;12.836;2023-05-27T14:03:33;2.65;;;1.83;;
37299;SDS011;23184;51.902;12.836;2023-05-27T14:05:58;3.20;;;1.50;;
37299;SDS011;23184;51.902;12.836;2023-05-27T14:08:23;4.00;;;1.98;;
37299;SDS011;23184;51.902;12.836;2023-05-27T14:10:49;2.28;;;1.52;;
37299;SDS011;23184;51.902;12.836;2023-05-27T14:13:15;2.22;;;1.50;;
37299;SDS011;23184;51.902;12.836;2023-05-27T14:15:40;5.03;;;2.08;;
37299;SDS011;23184;51.902;12.836;2023-05-27T14:18:06;4.20;;;1.83;;
37299;SDS011;23184;51.902;12.836;2023-05-27T14:20:32;4.53;;;2.28;;
37299;SDS011;23184;51.902;12.836;2023-05-27T14:22:58;3.35;;;1.67;;
37299;SDS011;23184;51.902;12.836;2023-05-27T14:25:25;4.68;;;1.90;;
37299;SDS011;23184;51.902;12.836;2023-05-27T14:27:50;4.20;;;1.80;;
37299;SDS011;23184;51.902;12.836;2023-05-27T14:30:16;5.55;;;1.58;;